Time;durP1;ratioP1;P1;durP2;ratioP2;P2;SDS_P1;SDS_P2;PMS_P1;PMS_P2;Temp;Humidity;BMP_temperature;BMP_pressure;BME280_temperature;BME280_humidity;BME280_pressure;Samples;Min_cycle;Max_cycle;Signal;HPM_P1;HPM_P2
2024/01/12 00:01:45;;;;;;;15.90;9.57;;;;;;;-2.86;98.13;62602.31;5051493;28;20653;-52
2024/01/12 00:04:11;;;;;;;21.07;10.40;;;;;;;-2.80;94.21;62610.69;5051332;28;20216;-59
2024/01/12 00:06:37;;;;;;;14.87;8.87;;;;;;;-2.60;92.97;62632.28;5051348;28;20589;-53
2024/01/12 00:09:04;;;;;;;15.40;9.07;;;;;;;-2.12;90.85;62684.09;5051278;28;20246;-55
2024/01/12 00:11:30;;;;;;;15.03;8.50;;;;;;;-2.19;90.60;62671.06;5033487;28;20188;-55
2024/01/12 00:13:55;;;;;;;17.70;9.20;;;;;;;-2.31;88.21;62660.56;5050541;28;20203;-55
2024/01/12 00:16:21;;;;;;;16.10;9.27;;;;;;;-2.52;87.89;62640.91;5051405;28;20709;-53
2024/01/12 00:18:47;;;;;;;17.77;9.57;;;;;;;-2.60;91.98;62632.28;5051098;28;20218;-53
2024/01/12 00:21:13;;;;;;;16.70;8.77;;;;;;;-2.57;93.82;62638.00;5051033;28;20267;-55
2024/01/12 00:23:39;;;;;;;18.43;9.97;;;;;;;-2.70;92.43;62621.47;5051005;28;20271;-58
2024/01/12 00:26:04;;;;;;;21.50;10.83;;;;;;;-2.88;92.47;62602.59;5051008;28;20197;-55
2024/01/12 00:28:33;;;;;;;17.03;9.03;;;;;;;-3.19;92.56;62569.16;5050997;28;20202;-53
2024/01/12 00:30:58;;;;;;;17.03;9.30;;;;;;;-2.88;96.44;62602.06;5051106;28;20656;-55
2024/01/12 00:33:24;;;;;;;14.47;8.37;;;;;;;-2.84;91.48;62604.47;5050935;28;20721;-55
2024/01/12 00:35:50;;;;;;;12.40;7.73;;;;;;;-2.89;89.80;62601.50;5051080;28;20206;-53
2024/01/12 00:38:15;;;;;;;14.63;7.80;;;;;;;-2.79;92.62;62611.78;5050965;28;20232;-52
2024/01/12 00:40:41;;;;;;;15.63;7.13;;;;;;;-3.00;85.27;62589.66;5032898;28;20193;-52
2024/01/12 00:43:07;;;;;;;14.63;7.53;;;;;;;-3.05;84.30;62583.72;5050629;28;20267;-53
2024/01/12 00:45:34;;;;;;;16.60;8.40;;;;;;;-3.01;86.32;62588.03;5032923;28;20189;-55
2024/01/12 00:48:00;;;;;;;13.43;6.93;;;;;;;-2.94;85.76;62593.13;5032956;28;20206;-54
2024/01/12 00:50:25;;;;;;;13.33;7.80;;;;;;;-3.01;84.61;62585.59;5033043;28;20184;-56
2024/01/12 00:52:51;;;;;;;16.37;8.33;;;;;;;-2.98;86.17;62591.81;5051488;28;20310;-55
2024/01/12 00:55:17;;;;;;;13.23;7.93;;;;;;;-2.99;85.43;62587.75;5050604;28;20544;-53
2024/01/12 00:57:43;;;;;;;18.17;8.57;;;;;;;-2.99;83.46;62590.72;5051216;28;20193;-54
2024/01/12 01:00:09;;;;;;;15.10;8.20;;;;;;;-3.11;84.97;62575.31;5055351;23;20235;-54
2024/01/12 01:02:35;;;;;;;10.87;6.23;;;;;;;-2.89;82.29;62598.53;5052609;28;20266;-52
2024/01/12 01:05:01;;;;;;;14.10;6.87;;;;;;;-2.94;80.23;62593.13;5070638;28;20698;-53
2024/01/12 01:07:28;;;;;;;16.33;7.77;;;;;;;-2.91;77.83;62601.28;5052520;28;20203;-54
2024/01/12 01:09:54;;;;;;;12.13;6.97;;;;;;;-3.10;77.63;62575.88;5070917;28;20299;-53
2024/01/12 01:12:19;;;;;;;10.70;5.53;;;;;;;-3.35;75.84;62546.97;5070466;28;20296;-53
2024/01/12 01:14:46;;;;;;;13.10;6.77;;;;;;;-3.30;76.27;62559.22;5070897;28;20281;-54
2024/01/12 01:17:12;;;;;;;12.80;6.53;;;;;;;-3.21;75.44;62566.47;5052462;28;20223;-52
2024/01/12 01:19:38;;;;;;;11.57;5.47;;;;;;;-3.14;75.29;62574.00;5070702;28;20207;-52
2024/01/12 01:22:04;;;;;;;9.50;5.53;;;;;;;-3.14;74.50;62574.00;5070502;28;20282;-53
2024/01/12 01:24:31;;;;;;;12.33;5.73;;;;;;;-3.14;75.26;62572.09;5070595;28;20272;-54
2024/01/12 01:26:57;;;;;;;12.47;5.87;;;;;;;-3.22;74.04;62565.94;5073604;28;20211;-53
2024/01/12 01:29:23;;;;;;;12.07;6.27;;;;;;;-3.21;73.70;62567.00;5073941;28;20678;-53
2024/01/12 01:31:49;;;;;;;12.70;6.03;;;;;;;-3.25;72.79;62562.16;5073892;28;20703;-52
2024/01/12 01:34:16;;;;;;;8.93;5.27;;;;;;;-3.33;73.38;62553.53;5056114;28;20246;-52
2024/01/12 01:36:42;;;;;;;9.07;4.53;;;;;;;-3.40;72.54;62541.59;5073863;28;20190;-54
2024/01/12 01:39:08;;;;;;;9.60;5.70;;;;;;;-3.31;71.95;62556.22;5073971;28;20654;-53
2024/01/12 01:41:35;;;;;;;13.03;5.70;;;;;;;-3.36;71.99;62550.84;5073657;28;20618;-55
2024/01/12 01:44:01;;;;;;;10.77;5.47;;;;;;;-3.31;71.71;62555.69;5073774;28;20209;-53
2024/01/12 01:46:28;;;;;;;9.17;5.87;;;;;;;-3.47;72.26;62541.97;5073466;28;20185;-53
2024/01/12 01:49:00;;;;;;;12.90;6.23;;;;;;;-3.18;73.48;62567.25;5073495;28;20288;-53
2024/01/12 01:51:27;;;;;;;9.00;5.20;;;;;;;-2.92;73.05;62600.75;5073598;28;20189;-52
2024/01/12 01:53:53;;;;;;;11.67;7.17;;;;;;;-2.96;74.63;62593.44;5073766;28;20570;-52
2024/01/12 01:56:19;;;;;;;14.07;7.10;;;;;;;-3.04;74.83;62584.81;5073572;28;20281;-53
2024/01/12 01:58:46;;;;;;;15.97;7.53;;;;;;;-3.23;77.09;62564.84;5055450;28;20209;-53
2024/01/12 02:01:12;;;;;;;10.80;6.50;;;;;;;-3.17;76.89;62570.78;5055418;28;20294;-52
2024/01/12 02:03:39;;;;;;;14.00;7.00;;;;;;;-3.55;78.83;62527.88;5073208;28;20702;-54
2024/01/12 02:06:05;;;;;;;13.17;6.90;;;;;;;-3.58;79.97;62527.66;5073368;28;20193;-53
2024/01/12 02:08:31;;;;;;;14.67;7.47;;;;;;;-3.58;80.08;62527.66;5073289;28;20266;-51
2024/01/12 02:10:57;;;;;;;16.67;7.93;;;;;;;-3.59;80.30;62526.56;5073469;28;20206;-52
2024/01/12 02:13:22;;;;;;;13.13;6.47;;;;;;;-3.73;80.13;62511.47;5073160;28;20617;-53
2024/01/12 02:15:48;;;;;;;13.00;6.87;;;;;;;-3.55;77.88;62528.41;5073198;28;20194;-52
2024/01/12 02:18:14;;;;;;;16.43;7.17;;;;;;;-3.51;76.56;62532.72;5055081;28;20218;-52
2024/01/12 02:20:41;;;;;;;14.00;6.93;;;;;;;-3.46;77.92;62535.66;5073067;28;20215;-52
2024/01/12 02:23:07;;;;;;;13.03;6.27;;;;;;;-3.33;74.76;62553.53;5073026;28;20220;-53
2024/01/12 02:25:33;;;;;;;14.03;7.07;;;;;;;-3.38;75.54;62548.69;5072790;28;20200;-51
2024/01/12 02:27:59;;;;;;;9.33;5.83;;;;;;;-3.46;73.28;62540.59;5055141;28;20228;-53
2024/01/12 02:30:24;;;;;;;12.33;6.67;;;;;;;-3.44;74.89;62542.75;5072800;28;20659;-54
2024/01/12 02:32:50;;;;;;;13.23;5.97;;;;;;;-3.32;73.20;62555.16;5072853;28;20205;-55
2024/01/12 02:35:16;;;;;;;12.37;6.27;;;;;;;-3.01;72.79;62588.56;5072899;28;20611;-57
2024/01/12 02:37:41;;;;;;;8.97;5.87;;;;;;;-2.70;75.55;62619.56;5079634;22;20258;-55
2024/01/12 02:40:07;;;;;;;11.50;5.77;;;;;;;-2.55;72.64;62635.22;5072855;28;20264;-53
2024/01/12 02:42:33;;;;;;;10.80;5.90;;;;;;;-2.39;71.82;62652.47;5072687;28;20235;-52
2024/01/12 02:44:58;;;;;;;10.93;5.70;;;;;;;-2.58;71.42;62632.50;5072585;28;20597;-56
2024/01/12 02:47:24;;;;;;;12.23;6.07;;;;;;;-2.90;72.08;62599.91;5054670;28;20307;-53
2024/01/12 02:49:49;;;;;;;12.30;6.50;;;;;;;-2.88;72.21;62602.59;5072618;28;20722;-54
2024/01/12 02:52:16;;;;;;;10.87;6.57;;;;;;;-2.63;72.64;62629.03;5072707;28;20288;-53
2024/01/12 02:54:41;;;;;;;12.20;6.57;;;;;;;-2.61;72.60;62631.19;5072653;28;20180;-54
2024/01/12 02:57:07;;;;;;;10.57;5.77;;;;;;;-2.48;73.61;62642.75;5072256;28;20272;-54
2024/01/12 02:59:32;;;;;;;13.07;7.13;;;;;;;-2.62;74.49;62627.66;5054626;28;20192;-55
2024/01/12 03:01:58;;;;;;;11.07;6.43;;;;;;;-2.54;73.61;62638.75;5072647;28;20240;-55
2024/01/12 03:04:23;;;;;;;9.67;6.10;;;;;;;-2.61;74.06;62631.19;5072404;28;20216;-54
2024/01/12 03:06:49;;;;;;;14.23;7.13;;;;;;;-3.19;75.28;62566.16;5072343;28;20569;-54
2024/01/12 03:09:15;;;;;;;15.70;7.37;;;;;;;-3.34;77.05;62549.97;5072345;28;20565;-54
2024/01/12 03:11:40;;;;;;;13.97;7.93;;;;;;;-3.35;78.41;62551.38;5054497;28;20244;-54
2024/01/12 03:14:06;;;;;;;14.97;7.27;;;;;;;-3.38;79.04;62551.13;5072124;28;20194;-53
2024/01/12 03:16:31;;;;;;;13.50;7.67;;;;;;;-3.34;78.39;62549.97;5072103;28;20195;-53
2024/01/12 03:18:57;;;;;;;15.00;7.77;;;;;;;-3.54;79.07;62531.97;5054216;28;20598;-53
2024/01/12 03:21:22;;;;;;;15.33;7.53;;;;;;;-3.66;79.70;62516.03;5072056;28;20268;-52
2024/01/12 03:23:48;;;;;;;15.07;7.40;;;;;;;-3.37;79.34;62552.19;5072134;28;20273;-54
2024/01/12 03:26:14;;;;;;;13.87;7.97;;;;;;;-3.11;80.69;62575.31;5072129;28;20238;-58
2024/01/12 03:28:40;;;;;;;12.43;7.37;;;;;;;-2.76;78.89;62615.56;5071934;28;20297;-53
2024/01/12 03:31:09;;;;;;;12.50;7.37;;;;;;;-2.64;78.47;62626.03;5037429;28;20197;-53
2024/01/12 03:33:34;;;;;;;13.87;7.60;;;;;;;-2.86;76.12;62601.75;5071952;28;20350;-54
2024/01/12 03:36:00;;;;;;;11.70;7.47;;;;;;;-2.85;77.03;62607.78;5072469;28;20715;-52
2024/01/12 03:38:25;;;;;;;13.83;6.93;;;;;;;-3.03;78.24;62580.97;5071837;28;20230;-52
2024/01/12 03:40:51;;;;;;;16.70;7.30;;;;;;;-3.04;78.82;62584.81;5072353;28;20273;-54
2024/01/12 03:43:16;;;;;;;11.73;6.90;;;;;;;-3.33;78.76;62554.06;5071800;28;20215;-52
2024/01/12 03:45:42;;;;;;;13.57;8.10;;;;;;;-3.26;79.56;62561.06;5053719;28;20210;-53
2024/01/12 03:48:08;;;;;;;11.60;6.60;;;;;;;-3.28;76.74;62556.44;5071373;28;20215;-55
2024/01/12 03:50:34;;;;;;;12.03;5.47;;;;;;;-3.42;76.43;62546.81;5070913;28;20199;-53
2024/01/12 03:52:59;;;;;;;13.17;7.60;;;;;;;-3.26;77.90;62561.06;5071537;28;20696;-51
2024/01/12 03:55:25;;;;;;;12.70;6.47;;;;;;;-2.85;77.69;62605.31;5071702;28;20207;-59
2024/01/12 03:57:50;;;;;;;12.40;7.07;;;;;;;-2.70;76.27;62621.47;5071694;28;20201;-54
2024/01/12 04:00:16;;;;;;;12.30;7.10;;;;;;;-2.55;74.95;62635.22;5071641;28;20573;-57
2024/01/12 04:02:42;;;;;;;14.10;6.97;;;;;;;-2.45;73.91;62646.00;5071141;28;20218;-53
2024/01/12 04:05:09;;;;;;;15.17;7.00;;;;;;;-2.80;73.09;62610.69;5071423;28;20263;-54
2024/01/12 04:07:35;;;;;;;11.77;6.33;;;;;;;-3.17;72.76;62568.84;5053408;28;20243;-53
2024/01/12 04:10:00;;;;;;;10.57;6.07;;;;;;;-3.31;75.08;62556.22;5071390;28;20201;-54
2024/01/12 04:12:26;;;;;;;11.77;6.43;;;;;;;-3.15;75.31;62568.03;5071294;28;20209;-52
2024/01/12 04:14:52;;;;;;;11.80;6.13;;;;;;;-2.81;76.31;62610.16;5071131;28;20199;-54
2024/01/12 04:17:24;;;;;;;11.40;6.83;;;;;;;-2.83;76.17;62605.00;5053238;28;20274;-53
2024/01/12 04:19:50;;;;;;;10.53;6.20;;;;;;;-2.70;75.71;62619.56;5071100;28;20192;-54
2024/01/12 04:22:16;;;;;;;12.23;6.93;;;;;;;-2.92;75.57;62597.75;5071236;28;20212;-53
2024/01/12 04:24:41;;;;;;;10.93;7.07;;;;;;;-2.60;77.28;62632.28;5071080;28;20269;-54
2024/01/12 04:27:07;;;;;;;13.77;7.03;;;;;;;-2.71;75.93;62620.41;5053048;28;20309;-54
2024/01/12 04:29:34;;;;;;;17.07;8.37;;;;;;;-3.06;78.80;62582.66;5053012;28;20235;-54
2024/01/12 04:32:00;;;;;;;14.77;7.20;;;;;;;-3.08;76.61;62580.47;5071252;28;20238;-54
2024/01/12 04:34:25;;;;;;;11.67;7.20;;;;;;;-3.20;75.99;62567.53;5036330;28;20275;-53
2024/01/12 04:36:51;;;;;;;13.07;7.33;;;;;;;-3.18;76.19;62570.25;5071178;28;20238;-53
2024/01/12 04:39:17;;;;;;;17.20;7.40;;;;;;;-3.39;76.27;62544.59;5071124;28;20608;-54
2024/01/12 04:41:42;;;;;;;13.30;7.47;;;;;;;-3.34;76.48;62553.00;5071107;28;20205;-54
2024/01/12 04:44:08;;;;;;;15.27;8.23;;;;;;;-3.41;76.70;62545.44;5070802;28;20629;-54
2024/01/12 04:46:34;;;;;;;13.17;7.30;;;;;;;-3.26;76.14;62563.53;5071198;28;20225;-54
2024/01/12 04:49:00;;;;;;;13.20;6.83;;;;;;;-3.12;76.70;62574.25;5071081;28;20309;-53
2024/01/12 04:51:25;;;;;;;11.27;6.07;;;;;;;-3.20;76.27;62562.63;5071006;28;20190;-54
2024/01/12 04:53:51;;;;;;;13.77;7.57;;;;;;;-2.98;76.56;62586.88;5070703;28;20247;-54
2024/01/12 04:56:17;;;;;;;14.03;7.50;;;;;;;-2.89;75.10;62601.00;5053003;28;20574;-54
2024/01/12 04:58:42;;;;;;;12.57;7.27;;;;;;;-2.79;77.47;62611.78;5052679;28;20216;-53
2024/01/12 05:01:08;;;;;;;12.87;6.97;;;;;;;-2.77;76.88;62609.00;5072691;28;20197;-53
2024/01/12 05:03:33;;;;;;;17.60;8.33;;;;;;;-2.81;75.47;62610.16;5056400;28;20244;-54
2024/01/12 05:05:59;;;;;;;13.67;7.30;;;;;;;-2.81;76.95;62607.16;5074668;28;20279;-54
2024/01/12 05:08:24;;;;;;;11.73;6.50;;;;;;;-2.20;100.00;62674.94;5056372;28;20311;-54
2024/01/12 05:10:50;;;;;;;27.60;9.63;;;;;;;1.43;100.00;63063.56;5074263;28;20205;-54
2024/01/12 05:13:16;;;;;;;17.83;9.03;;;;;;;4.20;100.00;63365.16;5074001;28;20214;-57
2024/01/12 05:15:42;;;;;;;20.77;11.67;;;;;;;0.80;100.00;62995.28;5074474;28;20199;-60
2024/01/12 05:18:07;;;;;;;18.40;9.40;;;;;;;-0.34;84.04;62875.41;5074027;28;20204;-58
2024/01/12 05:20:33;;;;;;;16.27;9.20;;;;;;;-1.12;80.42;62791.06;5055960;28;20197;-57
2024/01/12 05:22:59;;;;;;;15.80;8.90;;;;;;;-1.46;80.25;62751.84;5073981;28;20213;-56
2024/01/12 05:25:25;;;;;;;23.10;8.97;;;;;;;-1.98;78.96;62698.69;5055869;28;20216;-56
2024/01/12 05:27:50;;;;;;;21.47;9.50;;;;;;;-2.60;82.82;62632.28;5073860;28;20345;-57
2024/01/12 05:30:16;;;;;;;15.37;8.00;;;;;;;-2.43;82.53;62648.16;5073934;28;20571;-56
2024/01/12 05:32:42;;;;;;;14.23;8.87;;;;;;;-2.45;82.99;62648.47;5073932;28;20212;-57
2024/01/12 05:35:07;;;;;;;16.57;8.27;;;;;;;-2.40;83.66;62648.41;5073950;28;20207;-55
2024/01/12 05:37:33;;;;;;;15.70;8.60;;;;;;;-2.18;84.07;62680.06;5039123;28;20219;-55
2024/01/12 05:39:58;;;;;;;17.53;8.10;;;;;;;-2.29;82.28;62665.19;5073633;28;20200;-56
2024/01/12 05:42:24;;;;;;;16.37;7.90;;;;;;;-2.63;81.04;62629.03;5073691;28;20216;-55
2024/01/12 05:44:50;;;;;;;16.73;8.73;;;;;;;-2.44;83.61;62647.06;5073473;28;20224;-56
2024/01/12 05:47:16;;;;;;;17.57;8.40;;;;;;;-2.07;85.58;62688.94;5055418;28;20303;-56
2024/01/12 05:49:42;;;;;;;14.53;8.73;;;;;;;-2.71;81.51;62620.41;5073569;28;20263;-57
2024/01/12 05:52:08;;;;;;;17.90;9.03;;;;;;;-2.40;85.77;62653.34;5073300;28;20717;-59
2024/01/12 05:54:35;;;;;;;17.63;9.73;;;;;;;-2.71;82.88;62617.94;5055507;28;20343;-55
2024/01/12 05:57:02;;;;;;;20.90;9.00;;;;;;;-2.55;81.83;62637.69;5073709;28;20228;-58
2024/01/12 05:59:28;;;;;;;18.67;9.63;;;;;;;-2.49;82.83;62641.16;5073349;28;20187;-58
2024/01/12 06:01:54;;;;;;;20.53;9.87;;;;;;;-3.01;83.73;62586.09;5073427;28;20234;-57
2024/01/12 06:04:19;;;;;;;17.57;8.70;;;;;;;-2.96;83.05;62593.44;5055473;28;20222;-57
2024/01/12 06:06:46;;;;;;;17.93;9.00;;;;;;;-3.23;83.79;62564.31;5073309;28;20198;-58
2024/01/12 06:09:12;;;;;;;17.53;8.63;;;;;;;-3.17;83.40;62568.31;5055524;28;20687;-54
2024/01/12 06:11:42;;;;;;;15.33;8.50;;;;;;;-3.40;84.73;62546.53;5073137;28;20190;-58
2024/01/12 06:14:08;;;;;;;24.43;9.60;;;;;;;-3.33;87.27;62551.59;5055631;28;20651;-59
2024/01/12 06:16:33;;;;;;;15.47;8.10;;;;;;;-3.61;84.13;62521.94;5073598;28;20185;-57
2024/01/12 06:18:59;;;;;;;21.53;7.20;;;;;;;-3.75;83.70;62508.78;5073485;28;20289;-56
2024/01/12 06:21:25;;;;;;;19.27;8.70;;;;;;;-3.96;82.86;62483.69;5073566;28;20644;-54
2024/01/12 06:23:51;;;;;;;19.10;9.13;;;;;;;-3.97;82.90;62485.63;5072954;28;20298;-56
2024/01/12 06:26:16;;;;;;;16.10;8.13;;;;;;;-4.06;84.61;62475.38;5073109;28;20743;-57
2024/01/12 06:28:42;;;;;;;18.37;8.57;;;;;;;-3.95;84.40;62487.78;5071516;28;20216;-56
2024/01/12 06:31:08;;;;;;;19.30;8.33;;;;;;;-4.00;83.72;62482.38;5071125;28;20193;-58
2024/01/12 06:33:34;;;;;;;16.37;7.87;;;;;;;-3.92;83.50;62488.00;5072772;28;20219;-56
2024/01/12 06:36:02;;;;;;;18.23;8.37;;;;;;;-3.98;83.30;62484.53;5054927;28;20210;-55
2024/01/12 06:38:28;;;;;;;24.30;9.77;;;;;;;-3.92;83.96;62491.00;5072855;28;20214;-56
2024/01/12 06:40:53;;;;;;;17.70;8.47;;;;;;;-3.82;83.41;62501.78;5072974;28;20242;-55
2024/01/12 06:43:20;;;;;;;16.27;7.73;;;;;;;-3.68;83.04;62516.34;5072607;28;20640;-56
2024/01/12 06:45:46;;;;;;;18.83;8.03;;;;;;;-3.89;80.60;62491.78;5072939;28;20190;-59
2024/01/12 06:48:12;;;;;;;14.43;7.63;;;;;;;-3.88;80.99;62492.84;5073024;28;20683;-57
2024/01/12 06:50:37;;;;;;;16.60;6.93;;;;;;;-3.83;80.32;62500.16;5071684;28;20190;-56
2024/01/12 06:53:09;;;;;;;10.93;6.23;;;;;;;-3.71;78.90;62513.63;5072660;28;20227;-57
2024/01/12 06:55:37;;;;;;;12.47;6.60;;;;;;;-3.72;79.01;62512.56;5072890;28;20679;-54
2024/01/12 06:58:03;;;;;;;15.43;6.47;;;;;;;-3.88;79.21;62492.84;5072569;28;20205;-55
2024/01/12 07:00:31;;;;;;;16.03;7.70;;;;;;;-3.79;80.32;62502.56;5072741;28;20246;-56
2024/01/12 07:02:57;;;;;;;12.80;6.50;;;;;;;-3.71;79.88;62513.63;5072312;28;20264;-55
2024/01/12 07:05:25;;;;;;;12.50;6.40;;;;;;;-3.74;78.82;62510.41;5054333;28;20667;-55
2024/01/12 07:07:50;;;;;;;15.73;6.73;;;;;;;-3.62;79.11;62520.88;5072107;28;20222;-56
2024/01/12 07:10:16;;;;;;;21.33;6.97;;;;;;;-3.68;78.55;62516.88;5072386;28;20692;-55
2024/01/12 07:12:41;;;;;;;10.87;6.03;;;;;;;-3.58;78.39;62524.66;5072175;28;20209;-56
2024/01/12 07:15:08;;;;;;;13.47;6.47;;;;;;;-3.50;77.84;62536.28;5054252;28;20264;-55
2024/01/12 07:17:33;;;;;;;12.63;6.47;;;;;;;-3.55;78.31;62530.88;5072172;28;20214;-53
2024/01/12 07:19:59;;;;;;;15.70;8.80;;;;;;;-3.52;78.28;62534.13;5072036;28;20190;-60
2024/01/12 07:22:24;;;;;;;14.30;6.43;;;;;;;-3.57;79.00;62525.72;5072042;28;20225;-56
2024/01/12 07:24:50;;;;;;;14.13;6.90;;;;;;;-3.65;79.77;62517.09;5053627;28;20270;-55
2024/01/12 07:27:16;;;;;;;14.17;6.47;;;;;;;-3.69;79.46;62520.72;5071799;28;20236;-55
2024/01/12 07:29:42;;;;;;;16.23;8.10;;;;;;;-3.60;79.23;62525.50;5072036;28;20190;-56
2024/01/12 07:32:08;;;;;;;15.73;7.43;;;;;;;-3.62;79.10;62523.34;5071604;28;20344;-61
2024/01/12 07:34:33;;;;;;;20.30;8.90;;;;;;;-3.56;79.05;62529.28;5072025;28;20191;-57
2024/01/12 07:37:00;;;;;;;15.70;7.90;;;;;;;-3.64;79.43;62521.19;5071748;28;20221;-56
2024/01/12 07:39:26;;;;;;;17.10;7.90;;;;;;;-3.53;80.09;62533.03;5071767;28;20208;-56
2024/01/12 07:41:52;;;;;;;19.30;8.37;;;;;;;-3.72;81.61;62512.03;5072188;28;20709;-60
2024/01/12 07:44:18;;;;;;;20.63;8.23;;;;;;;-3.74;81.65;62510.41;5071616;28;20224;-55
2024/01/12 07:46:44;;;;;;;25.30;9.13;;;;;;;-3.56;83.69;62527.34;5071554;28;20200;-55
2024/01/12 07:49:10;;;;;;;25.97;11.67;;;;;;;-3.62;82.54;62525.81;5053672;28;20206;-55
2024/01/12 07:51:35;;;;;;;22.53;9.90;;;;;;;-3.75;82.98;62504.41;5071959;28;20297;-52
2024/01/12 07:54:01;;;;;;;17.67;8.37;;;;;;;-3.63;83.27;62519.78;5071832;28;20210;-55
2024/01/12 07:56:26;;;;;;;17.67;8.67;;;;;;;-3.48;84.03;62540.34;5071680;28;20207;-57
2024/01/12 07:58:52;;;;;;;18.43;8.90;;;;;;;-3.63;84.01;62522.25;5053816;28;20216;-56
2024/01/12 08:01:18;;;;;;;15.80;8.50;;;;;;;-0.80;100.00;62825.66;5053837;28;20215;-55
2024/01/12 08:03:45;;;;;;;14.70;7.77;;;;;;;-2.44;83.72;62647.06;5053526;28;20222;-56
2024/01/12 08:06:11;;;;;;;15.63;7.17;;;;;;;-2.98;84.01;62593.72;5071785;28;20199;-55
2024/01/12 08:08:37;;;;;;;18.40;8.63;;;;;;;-2.88;83.46;62602.06;5071384;28;20225;-54
2024/01/12 08:11:03;;;;;;;16.90;8.63;;;;;;;-3.05;84.12;62584.25;5071533;28;20193;-56
2024/01/12 08:13:28;;;;;;;16.93;8.13;;;;;;;-3.22;85.67;62565.38;5071317;28;20203;-54
2024/01/12 08:15:54;;;;;;;13.53;7.83;;;;;;;-3.13;84.79;62578.09;5071607;28;20187;-56
2024/01/12 08:18:20;;;;;;;16.10;8.40;;;;;;;-3.10;85.37;62575.88;5071080;28;20212;-54
2024/01/12 08:20:46;;;;;;;20.20;9.57;;;;;;;-3.31;87.67;62555.69;5071436;28;20195;-56
2024/01/12 08:23:12;;;;;;;18.37;9.60;;;;;;;-3.03;86.18;62586.41;5071057;28;20205;-55
2024/01/12 08:25:38;;;;;;;19.27;8.70;;;;;;;-3.07;85.38;62582.09;5071239;28;20217;-56
2024/01/12 08:28:04;;;;;;;20.50;8.50;;;;;;;-3.14;85.55;62574.00;5070998;28;20212;-54
2024/01/12 08:30:30;;;;;;;21.27;9.73;;;;;;;-2.83;85.48;62605.00;5071477;28;20283;-57
2024/01/12 08:32:56;;;;;;;16.63;9.07;;;;;;;-2.54;84.20;62638.22;5070883;28;20210;-57
2024/01/12 08:35:21;;;;;;;21.80;9.60;;;;;;;-2.69;84.48;62622.56;5052415;28;20255;-54
2024/01/12 08:37:47;;;;;;;22.63;10.47;;;;;;;-2.75;87.23;62616.63;5070824;28;20194;-55
2024/01/12 08:40:12;;;;;;;22.70;10.67;;;;;;;-2.78;87.97;62615.31;5070909;28;20237;-60
2024/01/12 08:42:39;;;;;;;25.23;11.47;;;;;;;-3.08;90.63;62582.94;5070937;28;20575;-56
2024/01/12 08:45:06;;;;;;;24.20;10.53;;;;;;;-2.98;91.20;62589.34;5070771;28;20224;-55
2024/01/12 08:47:31;;;;;;;25.20;10.37;;;;;;;-2.89;91.36;62601.00;5053107;28;20229;-54
2024/01/12 08:49:58;;;;;;;27.17;11.33;;;;;;;-2.53;89.62;62639.28;5053003;28;20632;-55
2024/01/12 08:52:24;;;;;;;24.27;10.10;;;;;;;-2.92;90.62;62595.81;5070902;28;20296;-54
2024/01/12 08:54:49;;;;;;;22.63;11.37;;;;;;;-2.76;91.61;62613.09;5070575;28;20276;-56
2024/01/12 08:57:15;;;;;;;25.50;11.00;;;;;;;-2.87;93.08;62601.22;5070703;28;20301;-55
2024/01/12 08:59:41;;;;;;;24.77;12.17;;;;;;;-2.69;93.11;62620.09;5070863;28;20192;-54
2024/01/12 09:02:07;;;;;;;25.00;11.30;;;;;;;-2.64;92.11;62627.97;5070650;28;20307;-55
2024/01/12 09:04:34;;;;;;;26.23;12.57;;;;;;;-2.88;94.07;62602.06;5070709;28;20258;-55
2024/01/12 09:07:00;;;;;;;27.73;11.90;;;;;;;-2.80;94.86;62608.78;5070723;28;20215;-54
2024/01/12 09:09:25;;;;;;;34.83;11.93;;;;;;;-2.69;95.32;62622.56;5070669;28;20670;-55
2024/01/12 09:11:51;;;;;;;25.60;11.87;;;;;;;-2.23;93.90;62671.69;5070943;28;20207;-55
2024/01/12 09:14:17;;;;;;;23.07;10.97;;;;;;;-1.50;92.18;62750.00;5070570;28;20275;-56
2024/01/12 09:16:43;;;;;;;23.37;11.27;;;;;;;-1.89;90.63;62706.47;5070714;28;20240;-56
2024/01/12 09:19:08;;;;;;;22.07;12.17;;;;;;;-1.88;90.83;62707.00;5052481;28;20272;-56
2024/01/12 09:21:34;;;;;;;26.90;12.07;;;;;;;-2.27;91.73;62669.81;5052773;28;20283;-54
2024/01/12 09:24:00;;;;;;;28.90;13.10;;;;;;;-2.60;93.93;62634.75;5070466;28;20209;-56
2024/01/12 09:26:26;;;;;;;25.90;13.10;;;;;;;-2.23;93.67;62671.69;5070345;28;20209;-57
2024/01/12 09:28:51;;;;;;;29.87;13.50;;;;;;;-2.09;92.53;62687.34;5070474;28;20223;-57
2024/01/12 09:31:17;;;;;;;25.10;12.10;;;;;;;-2.32;93.11;62659.50;5070368;28;20197;-55
2024/01/12 09:33:42;;;;;;;26.33;12.23;;;;;;;-2.13;92.90;62680.00;5070301;28;20212;-58
2024/01/12 09:36:09;;;;;;;33.63;12.90;;;;;;;-2.53;94.67;62639.84;5077764;22;20237;-55
2024/01/12 09:38:34;;;;;;;23.67;12.73;;;;;;;-2.36;94.54;62660.66;5070385;28;20197;-56
2024/01/12 09:41:03;;;;;;;26.67;13.00;;;;;;;-2.08;93.52;62690.88;5070256;28;20200;-56
2024/01/12 09:43:33;;;;;;;27.10;12.30;;;;;;;-1.83;92.59;62715.41;5069837;28;20729;-63
2024/01/12 09:46:03;;;;;;;22.20;10.43;;;;;;;-1.95;91.05;62704.94;5070315;28;20229;-56
2024/01/12 09:48:30;;;;;;;27.57;11.43;;;;;;;-1.92;92.64;62705.69;5055726;28;20207;-56
2024/01/12 09:50:56;;;;;;;24.50;13.80;;;;;;;-1.93;92.02;62701.59;5055516;28;20192;-56
2024/01/12 09:53:22;;;;;;;22.07;10.80;;;;;;;-2.18;92.36;62677.09;5073606;28;20202;-56
2024/01/12 09:55:49;;;;;;;23.60;12.03;;;;;;;-2.10;92.50;62683.78;5073765;28;20186;-57
2024/01/12 09:58:16;;;;;;;25.47;11.27;;;;;;;-2.00;92.29;62694.59;5073310;28;20209;-54
2024/01/12 10:00:44;;;;;;;29.53;13.07;;;;;;;-1.84;93.05;62714.31;5073550;28;20213;-57
2024/01/12 10:03:13;;;;;;;28.50;13.23;;;;;;;-1.47;89.52;62753.22;5073312;28;20202;-55
2024/01/12 10:05:38;;;;;;;25.27;11.40;;;;;;;-1.79;88.82;62719.19;5073283;28;20209;-55
2024/01/12 10:08:07;;;;;;;24.43;11.73;;;;;;;-1.79;89.19;62719.75;5055925;28;20725;-56
2024/01/12 10:10:33;;;;;;;27.97;12.53;;;;;;;-1.90;91.74;62705.38;5073508;28;20243;-56
2024/01/12 10:13:01;;;;;;;24.30;12.13;;;;;;;-1.91;90.47;62701.84;5073604;28;20197;-57
2024/01/12 10:15:26;;;;;;;25.27;11.37;;;;;;;-1.58;90.21;62738.88;5073494;28;20200;-57
2024/01/12 10:17:52;;;;;;;27.37;13.00;;;;;;;-1.36;88.45;62765.66;5055030;28;20221;-55
2024/01/12 10:20:20;;;;;;;27.13;12.60;;;;;;;-1.86;91.35;62712.16;5073168;28;20204;-61
2024/01/12 10:22:54;;;;;;;26.27;13.47;;;;;;;-1.64;91.66;62734.88;5055206;28;20305;-55
2024/01/12 10:25:20;;;;;;;29.73;14.13;;;;;;;-0.97;89.56;62805.34;5054663;28;20350;-57
2024/01/12 10:27:57;;;;;;;25.83;12.17;;;;;;;-0.80;85.16;62822.63;5072829;28;20223;-56
2024/01/12 10:30:22;;;;;;;30.10;13.07;;;;;;;-1.55;87.45;62745.13;5072941;28;20193;-56
2024/01/12 10:32:52;;;;;;;28.83;13.33;;;;;;;-1.59;88.20;62742.72;5054797;28;20214;-55
2024/01/12 10:35:28;;;;;;;31.63;12.97;;;;;;;-1.34;89.15;62762.34;5072954;28;20198;-55
2024/01/12 10:37:56;;;;;;;20.67;12.20;;;;;;;-1.60;88.91;62739.72;5072992;28;20234;-56
2024/01/12 10:40:23;;;;;;;25.23;12.97;;;;;;;-1.46;88.29;62754.31;5072870;28;20217;-54
2024/01/12 10:42:49;;;;;;;23.40;11.57;;;;;;;-1.18;87.14;62784.56;5071913;28;20346;-58
2024/01/12 10:45:21;;;;;;;25.17;12.47;;;;;;;-1.03;91.46;62798.84;5072092;28;20656;-54
2024/01/12 10:48:05;;;;;;;23.53;12.37;;;;;;;-1.11;88.60;62792.69;5071487;28;20303;-55
2024/01/12 10:50:36;;;;;;;25.77;12.57;;;;;;;-1.33;90.12;62768.34;5072326;28;20192;-56
2024/01/12 10:53:27;;;;;;;25.60;11.40;;;;;;;-1.01;88.70;62803.50;5053872;28;20298;-56
2024/01/12 10:56:00;;;;;;;26.10;12.17;;;;;;;-1.24;88.80;62778.63;5055294;28;20212;-55
2024/01/12 10:58:27;;;;;;;23.73;11.50;;;;;;;-1.73;91.73;62721.28;5071716;28;20242;-55
2024/01/12 11:00:53;;;;;;;25.70;12.07;;;;;;;-1.69;91.32;62727.53;5072577;28;20196;-54
2024/01/12 11:03:20;;;;;;;26.40;12.73;;;;;;;-1.62;92.16;62737.03;5072296;28;20660;-55
2024/01/12 11:05:50;;;;;;;27.80;14.13;;;;;;;-1.55;92.51;62744.56;5069982;28;20246;-54
2024/01/12 11:08:19;;;;;;;26.37;11.63;;;;;;;-0.75;89.69;62831.06;5051733;28;20207;-55
2024/01/12 11:10:53;;;;;;;29.80;13.43;;;;;;;-1.16;88.13;62784.81;5071615;28;20222;-55
2024/01/12 11:13:19;;;;;;;27.03;13.40;;;;;;;-1.44;90.00;62757.03;5052115;28;20235;-55
2024/01/12 11:15:50;;;;;;;34.23;13.73;;;;;;;-1.30;89.78;62769.13;5071248;28;20198;-56
2024/01/12 11:18:17;;;;;;;30.73;12.73;;;;;;;0.09;94.66;62918.38;5069661;28;20709;-55
2024/01/12 11:20:45;;;;;;;24.40;11.70;;;;;;;-0.62;86.60;62842.66;5072317;28;20189;-56